sensor_id;sensor_type;location;lat;lon;timestamp;P1;durP1;ratioP1;P2;durP2;ratioP2
45944;SDS011;31655;48.972;10.686;2023-02-20T00:00:29;16.48;;;7.47;;
45944;SDS011;31655;48.972;10.686;2023-02-20T00:02:56;20.30;;;7.10;;
45944;SDS011;31655;48.972;10.686;2023-02-20T00:05:22;13.95;;;7.30;;
45944;SDS011;31655;48.972;10.686;2023-02-20T00:07:48;15.00;;;8.07;;
45944;SDS011;31655;48.972;10.686;2023-02-20T00:10:15;13.82;;;6.65;;
45944;SDS011;31655;48.972;10.686;2023-02-20T00:12:41;14.07;;;6.30;;
45944;SDS011;31655;48.972;10.686;2023-02-20T00:15:07;14.27;;;7.05;;
45944;SDS011;31655;48.972;10.686;2023-02-20T00:17:36;13.65;;;7.60;;
45944;SDS011;31655;48.972;10.686;2023-02-20T00:20:02;18.75;;;7.75;;
45944;SDS011;31655;48.972;10.686;2023-02-20T00:22:28;18.23;;;7.32;;
45944;SDS011;31655;48.972;10.686;2023-02-20T00:24:54;9.80;;;6.03;;
45944;SDS011;31655;48.972;10.686;2023-02-20T00:27:20;16.65;;;6.68;;
45944;SDS011;31655;48.972;10.686;2023-02-20T00:29:46;14.07;;;8.35;;
45944;SDS011;31655;48.972;10.686;2023-02-20T00:32:12;15.48;;;6.20;;
45944;SDS011;31655;48.972;10.686;2023-02-20T00:34:37;14.60;;;6.78;;
45944;SDS011;31655;48.972;10.686;2023-02-20T00:37:03;16.10;;;6.88;;
45944;SDS011;31655;48.972;10.686;2023-02-20T00:39:32;21.40;;;7.60;;
45944;SDS011;31655;48.972;10.686;2023-02-20T00:41:58;15.15;;;6.82;;
45944;SDS011;31655;48.972;10.686;2023-02-20T00:44:24;13.18;;;6.68;;
45944;SDS011;31655;48.972;10.686;2023-02-20T00:46:50;13.18;;;6.93;;
45944;SDS011;31655;48.972;10.686;2023-02-20T00:49:17;13.77;;;6.63;;
45944;SDS011;31655;48.972;10.686;2023-02-20T00:51:43;15.30;;;6.43;;
45944;SDS011;31655;48.972;10.686;2023-02-20T00:54:08;13.25;;;6.13;;
45944;SDS011;31655;48.972;10.686;2023-02-20T00:56:34;19.85;;;6.90;;
45944;SDS011;31655;48.972;10.686;2023-02-20T00:59:00;16.40;;;6.13;;
45944;SDS011;31655;48.972;10.686;2023-02-20T01:01:26;20.33;;;6.82;;
45944;SDS011;31655;48.972;10.686;2023-02-20T01:03:52;19.70;;;7.28;;
45944;SDS011;31655;48.972;10.686;2023-02-20T01:06:18;10.32;;;6.18;;
45944;SDS011;31655;48.972;10.686;2023-02-20T01:08:44;12.40;;;6.95;;
45944;SDS011;31655;48.972;10.686;2023-02-20T01:11:10;11.93;;;6.28;;
45944;SDS011;31655;48.972;10.686;2023-02-20T01:13:36;17.33;;;7.15;;
45944;SDS011;31655;48.972;10.686;2023-02-20T01:16:03;17.25;;;7.22;;
45944;SDS011;31655;48.972;10.686;2023-02-20T01:18:29;19.58;;;7.07;;
45944;SDS011;31655;48.972;10.686;2023-02-20T01:20:55;14.30;;;6.93;;
45944;SDS011;31655;48.972;10.686;2023-02-20T01:23:21;15.35;;;6.72;;
45944;SDS011;31655;48.972;10.686;2023-02-20T01:25:47;13.43;;;5.22;;
45944;SDS011;31655;48.972;10.686;2023-02-20T01:28:13;11.05;;;5.95;;
45944;SDS011;31655;48.972;10.686;2023-02-20T01:30:39;21.02;;;7.63;;
45944;SDS011;31655;48.972;10.686;2023-02-20T01:33:05;15.25;;;6.47;;
45944;SDS011;31655;48.972;10.686;2023-02-20T01:35:30;14.38;;;5.68;;
45944;SDS011;31655;48.972;10.686;2023-02-20T01:37:57;11.88;;;6.13;;
45944;SDS011;31655;48.972;10.686;2023-02-20T01:40:24;19.08;;;6.82;;
45944;SDS011;31655;48.972;10.686;2023-02-20T01:42:50;18.25;;;7.68;;
45944;SDS011;31655;48.972;10.686;2023-02-20T01:47:49;18.73;;;7.55;;
45944;SDS011;31655;48.972;10.686;2023-02-20T01:50:17;11.93;;;6.78;;
45944;SDS011;31655;48.972;10.686;2023-02-20T01:52:47;20.20;;;7.53;;
45944;SDS011;31655;48.972;10.686;2023-02-20T01:57:42;15.63;;;7.15;;
45944;SDS011;31655;48.972;10.686;2023-02-20T02:00:14;12.50;;;6.57;;
45944;SDS011;31655;48.972;10.686;2023-02-20T02:02:45;15.25;;;7.07;;
45944;SDS011;31655;48.972;10.686;2023-02-20T02:05:15;17.23;;;7.18;;
45944;SDS011;31655;48.972;10.686;2023-02-20T02:07:42;15.57;;;7.45;;
45944;SDS011;31655;48.972;10.686;2023-02-20T02:10:10;13.77;;;7.22;;
45944;SDS011;31655;48.972;10.686;2023-02-20T02:12:40;12.55;;;6.63;;
45944;SDS011;31655;48.972;10.686;2023-02-20T02:15:13;11.93;;;6.78;;
45944;SDS011;31655;48.972;10.686;2023-02-20T02:20:31;15.27;;;6.85;;
45944;SDS011;31655;48.972;10.686;2023-02-20T02:25:59;18.75;;;7.47;;
45944;SDS011;31655;48.972;10.686;2023-02-20T02:45:15;20.70;;;7.35;;
45944;SDS011;31655;48.972;10.686;2023-02-20T02:48:18;17.05;;;7.20;;
45944;SDS011;31655;48.972;10.686;2023-02-20T02:51:11;11.40;;;6.65;;
45944;SDS011;31655;48.972;10.686;2023-02-20T02:53:41;15.98;;;7.22;;
45944;SDS011;31655;48.972;10.686;2023-02-20T02:56:32;12.88;;;8.80;;
45944;SDS011;31655;48.972;10.686;2023-02-20T03:01:28;17.90;;;7.57;;
45944;SDS011;31655;48.972;10.686;2023-02-20T03:03:56;20.65;;;8.88;;
45944;SDS011;31655;48.972;10.686;2023-02-20T03:06:24;16.23;;;7.63;;
45944;SDS011;31655;48.972;10.686;2023-02-20T03:09:00;18.70;;;7.88;;
45944;SDS011;31655;48.972;10.686;2023-02-20T03:11:49;14.43;;;7.55;;
45944;SDS011;31655;48.972;10.686;2023-02-20T03:21:00;15.57;;;6.80;;
45944;SDS011;31655;48.972;10.686;2023-02-20T03:23:34;17.57;;;7.60;;
45944;SDS011;31655;48.972;10.686;2023-02-20T03:26:05;16.42;;;8.05;;
45944;SDS011;31655;48.972;10.686;2023-02-20T03:28:35;14.95;;;7.43;;
45944;SDS011;31655;48.972;10.686;2023-02-20T03:31:14;18.45;;;7.80;;
45944;SDS011;31655;48.972;10.686;2023-02-20T03:33:46;18.10;;;7.78;;
45944;SDS011;31655;48.972;10.686;2023-02-20T03:36:40;16.35;;;8.02;;
45944;SDS011;31655;48.972;10.686;2023-02-20T03:39:31;15.93;;;6.97;;
45944;SDS011;31655;48.972;10.686;2023-02-20T03:42:20;21.48;;;7.47;;
45944;SDS011;31655;48.972;10.686;2023-02-20T03:45:08;16.92;;;7.18;;
45944;SDS011;31655;48.972;10.686;2023-02-20T03:47:36;14.70;;;7.63;;
45944;SDS011;31655;48.972;10.686;2023-02-20T03:50:05;14.80;;;8.35;;
45944;SDS011;31655;48.972;10.686;2023-02-20T03:52:33;17.85;;;7.68;;
45944;SDS011;31655;48.972;10.686;2023-02-20T03:54:59;13.68;;;6.85;;
45944;SDS011;31655;48.972;10.686;2023-02-20T03:57:26;13.45;;;7.32;;
45944;SDS011;31655;48.972;10.686;2023-02-20T04:02:30;15.35;;;7.50;;
45944;SDS011;31655;48.972;10.686;2023-02-20T04:04:59;17.95;;;7.38;;
45944;SDS011;31655;48.972;10.686;2023-02-20T04:10:30;22.33;;;8.77;;
45944;SDS011;31655;48.972;10.686;2023-02-20T04:13:07;14.73;;;7.63;;
45944;SDS011;31655;48.972;10.686;2023-02-20T04:15:36;15.57;;;7.35;;
45944;SDS011;31655;48.972;10.686;2023-02-20T04:18:04;16.67;;;8.13;;
45944;SDS011;31655;48.972;10.686;2023-02-20T04:20:34;17.73;;;8.05;;
45944;SDS011;31655;48.972;10.686;2023-02-20T04:23:03;17.40;;;8.82;;
45944;SDS011;31655;48.972;10.686;2023-02-20T04:25:48;15.55;;;7.20;;
45944;SDS011;31655;48.972;10.686;2023-02-20T04:28:16;23.08;;;8.93;;
45944;SDS011;31655;48.972;10.686;2023-02-20T04:30:42;29.65;;;10.05;;
45944;SDS011;31655;48.972;10.686;2023-02-20T04:33:09;19.65;;;8.05;;
45944;SDS011;31655;48.972;10.686;2023-02-20T04:35:37;18.52;;;8.18;;
45944;SDS011;31655;48.972;10.686;2023-02-20T04:38:03;15.43;;;8.23;;
45944;SDS011;31655;48.972;10.686;2023-02-20T04:40:29;15.27;;;7.80;;
45944;SDS011;31655;48.972;10.686;2023-02-20T04:42:55;25.35;;;7.07;;
45944;SDS011;31655;48.972;10.686;2023-02-20T04:45:21;14.70;;;7.43;;
45944;SDS011;31655;48.972;10.686;2023-02-20T04:47:47;13.63;;;7.63;;
45944;SDS011;31655;48.972;10.686;2023-02-20T04:50:21;15.75;;;8.32;;
45944;SDS011;31655;48.972;10.686;2023-02-20T04:52:50;15.75;;;7.53;;
45944;SDS011;31655;48.972;10.686;2023-02-20T04:55:17;16.17;;;7.43;;
45944;SDS011;31655;48.972;10.686;2023-02-20T04:57:44;15.68;;;6.78;;
45944;SDS011;31655;48.972;10.686;2023-02-20T05:00:10;26.08;;;8.10;;
45944;SDS011;31655;48.972;10.686;2023-02-20T05:02:39;22.27;;;8.90;;
45944;SDS011;31655;48.972;10.686;2023-02-20T05:07:41;34.78;;;9.55;;
45944;SDS011;31655;48.972;10.686;2023-02-20T05:10:07;29.45;;;8.77;;
45944;SDS011;31655;48.972;10.686;2023-02-20T05:12:36;32.80;;;10.40;;
45944;SDS011;31655;48.972;10.686;2023-02-20T05:15:03;32.08;;;8.80;;
45944;SDS011;31655;48.972;10.686;2023-02-20T05:17:29;34.13;;;10.15;;
45944;SDS011;31655;48.972;10.686;2023-02-20T05:19:55;32.33;;;8.50;;
45944;SDS011;31655;48.972;10.686;2023-02-20T05:22:21;26.95;;;8.88;;
45944;SDS011;31655;48.972;10.686;2023-02-20T05:24:48;16.08;;;7.38;;
45944;SDS011;31655;48.972;10.686;2023-02-20T05:27:15;21.65;;;6.93;;
45944;SDS011;31655;48.972;10.686;2023-02-20T05:29:49;24.58;;;10.75;;
45944;SDS011;31655;48.972;10.686;2023-02-20T05:32:32;32.97;;;9.23;;
45944;SDS011;31655;48.972;10.686;2023-02-20T05:34:58;16.15;;;7.47;;
45944;SDS011;31655;48.972;10.686;2023-02-20T05:50:23;28.05;;;8.52;;
45944;SDS011;31655;48.972;10.686;2023-02-20T05:52:50;32.85;;;8.82;;
45944;SDS011;31655;48.972;10.686;2023-02-20T05:55:15;25.98;;;7.63;;
45944;SDS011;31655;48.972;10.686;2023-02-20T06:00:23;34.10;;;8.23;;
45944;SDS011;31655;48.972;10.686;2023-02-20T06:02:50;16.83;;;6.65;;
45944;SDS011;31655;48.972;10.686;2023-02-20T06:05:16;35.72;;;8.48;;
45944;SDS011;31655;48.972;10.686;2023-02-20T06:10:18;39.10;;;9.63;;
45944;SDS011;31655;48.972;10.686;2023-02-20T06:20:31;30.88;;;8.23;;
45944;SDS011;31655;48.972;10.686;2023-02-20T06:28:08;26.40;;;7.35;;
45944;SDS011;31655;48.972;10.686;2023-02-20T06:30:34;30.38;;;9.13;;
45944;SDS011;31655;48.972;10.686;2023-02-20T06:33:00;13.75;;;6.30;;
45944;SDS011;31655;48.972;10.686;2023-02-20T06:35:26;18.40;;;6.28;;
45944;SDS011;31655;48.972;10.686;2023-02-20T06:37:51;11.88;;;6.28;;
45944;SDS011;31655;48.972;10.686;2023-02-20T06:40:17;16.08;;;6.03;;
45944;SDS011;31655;48.972;10.686;2023-02-20T06:42:43;17.05;;;6.40;;
45944;SDS011;31655;48.972;10.686;2023-02-20T06:45:08;31.55;;;9.85;;
45944;SDS011;31655;48.972;10.686;2023-02-20T06:47:35;18.30;;;6.15;;
45944;SDS011;31655;48.972;10.686;2023-02-20T06:50:01;11.45;;;5.68;;
45944;SDS011;31655;48.972;10.686;2023-02-20T06:52:27;16.50;;;5.55;;
45944;SDS011;31655;48.972;10.686;2023-02-20T06:57:30;23.42;;;6.40;;
45944;SDS011;31655;48.972;10.686;2023-02-20T06:59:57;9.35;;;4.93;;
45944;SDS011;31655;48.972;10.686;2023-02-20T07:02:22;15.02;;;5.30;;
45944;SDS011;31655;48.972;10.686;2023-02-20T07:04:48;13.48;;;5.45;;
45944;SDS011;31655;48.972;10.686;2023-02-20T07:07:14;20.73;;;6.40;;
45944;SDS011;31655;48.972;10.686;2023-02-20T07:09:40;36.78;;;8.75;;
45944;SDS011;31655;48.972;10.686;2023-02-20T07:12:06;9.15;;;4.97;;
45944;SDS011;31655;48.972;10.686;2023-02-20T07:14:32;8.93;;;5.25;;
45944;SDS011;31655;48.972;10.686;2023-02-20T07:16:58;8.65;;;4.82;;
45944;SDS011;31655;48.972;10.686;2023-02-20T07:19:24;13.15;;;6.75;;
45944;SDS011;31655;48.972;10.686;2023-02-20T07:21:50;9.50;;;4.57;;
45944;SDS011;31655;48.972;10.686;2023-02-20T07:24:16;9.52;;;4.80;;
45944;SDS011;31655;48.972;10.686;2023-02-20T07:26:42;13.73;;;7.10;;
45944;SDS011;31655;48.972;10.686;2023-02-20T07:29:08;9.75;;;4.68;;
45944;SDS011;31655;48.972;10.686;2023-02-20T07:31:34;10.23;;;5.15;;
45944;SDS011;31655;48.972;10.686;2023-02-20T07:33:59;10.35;;;5.30;;
45944;SDS011;31655;48.972;10.686;2023-02-20T07:36:25;12.65;;;5.90;;
45944;SDS011;31655;48.972;10.686;2023-02-20T07:38:52;17.70;;;5.63;;
45944;SDS011;31655;48.972;10.686;2023-02-20T07:41:19;13.93;;;4.55;;
45944;SDS011;31655;48.972;10.686;2023-02-20T07:43:45;13.43;;;5.85;;
45944;SDS011;31655;48.972;10.686;2023-02-20T07:46:11;12.88;;;5.05;;
45944;SDS011;31655;48.972;10.686;2023-02-20T07:48:37;8.88;;;4.22;;
45944;SDS011;31655;48.972;10.686;2023-02-20T07:51:03;10.20;;;5.00;;
45944;SDS011;31655;48.972;10.686;2023-02-20T07:53:28;11.65;;;4.15;;
45944;SDS011;31655;48.972;10.686;2023-02-20T07:55:54;10.75;;;6.82;;
45944;SDS011;31655;48.972;10.686;2023-02-20T07:58:20;8.85;;;4.22;;
45944;SDS011;31655;48.972;10.686;2023-02-20T08:00:46;11.30;;;4.50;;
45944;SDS011;31655;48.972;10.686;2023-02-20T08:03:15;8.27;;;3.95;;
45944;SDS011;31655;48.972;10.686;2023-02-20T08:05:41;10.20;;;4.40;;
45944;SDS011;31655;48.972;10.686;2023-02-20T08:08:07;10.05;;;4.68;;
45944;SDS011;31655;48.972;10.686;2023-02-20T08:10:33;10.65;;;4.10;;
45944;SDS011;31655;48.972;10.686;2023-02-20T08:12:59;8.57;;;3.95;;
45944;SDS011;31655;48.972;10.686;2023-02-20T08:15:26;10.48;;;3.88;;
45944;SDS011;31655;48.972;10.686;2023-02-20T08:17:52;10.88;;;4.68;;
45944;SDS011;31655;48.972;10.686;2023-02-20T08:20:18;7.97;;;3.55;;
45944;SDS011;31655;48.972;10.686;2023-02-20T08:22:44;10.60;;;4.43;;
45944;SDS011;31655;48.972;10.686;2023-02-20T08:25:11;7.38;;;4.07;;
45944;SDS011;31655;48.972;10.686;2023-02-20T08:27:40;8.18;;;3.75;;
45944;SDS011;31655;48.972;10.686;2023-02-20T08:30:11;6.70;;;4.13;;
45944;SDS011;31655;48.972;10.686;2023-02-20T08:32:45;5.43;;;3.42;;
45944;SDS011;31655;48.972;10.686;2023-02-20T08:35:10;6.63;;;4.20;;
45944;SDS011;31655;48.972;10.686;2023-02-20T08:37:36;9.45;;;3.95;;
45944;SDS011;31655;48.972;10.686;2023-02-20T08:40:02;8.93;;;4.65;;
45944;SDS011;31655;48.972;10.686;2023-02-20T08:42:30;7.15;;;4.18;;
45944;SDS011;31655;48.972;10.686;2023-02-20T08:44:57;8.77;;;3.60;;
45944;SDS011;31655;48.972;10.686;2023-02-20T08:47:23;9.63;;;3.58;;
45944;SDS011;31655;48.972;10.686;2023-02-20T08:49:49;11.43;;;3.90;;
45944;SDS011;31655;48.972;10.686;2023-02-20T08:52:15;7.50;;;3.10;;
45944;SDS011;31655;48.972;10.686;2023-02-20T08:54:44;8.63;;;4.50;;
45944;SDS011;31655;48.972;10.686;2023-02-20T08:57:11;7.90;;;3.85;;
45944;SDS011;31655;48.972;10.686;2023-02-20T08:59:37;6.88;;;3.83;;
45944;SDS011;31655;48.972;10.686;2023-02-20T09:02:04;8.13;;;3.17;;
45944;SDS011;31655;48.972;10.686;2023-02-20T09:04:30;9.18;;;3.78;;
45944;SDS011;31655;48.972;10.686;2023-02-20T09:06:55;9.00;;;3.78;;
45944;SDS011;31655;48.972;10.686;2023-02-20T09:09:21;11.45;;;4.00;;
45944;SDS011;31655;48.972;10.686;2023-02-20T09:11:47;7.18;;;3.70;;
45944;SDS011;31655;48.972;10.686;2023-02-20T09:14:13;6.60;;;3.78;;
45944;SDS011;31655;48.972;10.686;2023-02-20T09:16:39;5.85;;;3.05;;
45944;SDS011;31655;48.972;10.686;2023-02-20T09:19:09;7.85;;;3.50;;
45944;SDS011;31655;48.972;10.686;2023-02-20T09:21:35;9.05;;;3.38;;
45944;SDS011;31655;48.972;10.686;2023-02-20T09:24:01;8.35;;;3.97;;
45944;SDS011;31655;48.972;10.686;2023-02-20T09:26:27;8.10;;;3.45;;
45944;SDS011;31655;48.972;10.686;2023-02-20T09:28:53;11.07;;;3.17;;
45944;SDS011;31655;48.972;10.686;2023-02-20T09:31:18;8.30;;;3.90;;
45944;SDS011;31655;48.972;10.686;2023-02-20T09:33:44;9.43;;;3.08;;
45944;SDS011;31655;48.972;10.686;2023-02-20T09:36:11;8.35;;;2.75;;
45944;SDS011;31655;48.972;10.686;2023-02-20T09:38:37;7.82;;;3.67;;
45944;SDS011;31655;48.972;10.686;2023-02-20T09:41:03;8.70;;;3.35;;
45944;SDS011;31655;48.972;10.686;2023-02-20T09:43:47;6.82;;;3.13;;
45944;SDS011;31655;48.972;10.686;2023-02-20T09:51:11;6.93;;;2.45;;
45944;SDS011;31655;48.972;10.686;2023-02-20T09:56:28;4.97;;;2.65;;
45944;SDS011;31655;48.972;10.686;2023-02-20T09:59:24;8.85;;;2.88;;
45944;SDS011;31655;48.972;10.686;2023-02-20T10:02:00;4.13;;;2.35;;
45944;SDS011;31655;48.972;10.686;2023-02-20T10:04:37;7.47;;;2.58;;
45944;SDS011;31655;48.972;10.686;2023-02-20T10:07:14;7.88;;;3.40;;
45944;SDS011;31655;48.972;10.686;2023-02-20T10:09:41;9.07;;;3.50;;
45944;SDS011;31655;48.972;10.686;2023-02-20T10:15:02;7.20;;;2.38;;
45944;SDS011;31655;48.972;10.686;2023-02-20T10:20:08;6.57;;;2.60;;
45944;SDS011;31655;48.972;10.686;2023-02-20T10:22:50;6.55;;;2.70;;
45944;SDS011;31655;48.972;10.686;2023-02-20T10:25:27;6.75;;;2.53;;
45944;SDS011;31655;48.972;10.686;2023-02-20T10:27:59;6.50;;;2.95;;
45944;SDS011;31655;48.972;10.686;2023-02-20T10:35:38;5.18;;;2.60;;
45944;SDS011;31655;48.972;10.686;2023-02-20T10:38:19;4.25;;;2.28;;
45944;SDS011;31655;48.972;10.686;2023-02-20T10:40:56;4.55;;;2.13;;
45944;SDS011;31655;48.972;10.686;2023-02-20T10:43:44;6.05;;;2.20;;
45944;SDS011;31655;48.972;10.686;2023-02-20T10:46:19;8.38;;;3.22;;
45944;SDS011;31655;48.972;10.686;2023-02-20T10:48:53;6.85;;;2.47;;
45944;SDS011;31655;48.972;10.686;2023-02-20T10:51:27;8.05;;;2.42;;
45944;SDS011;31655;48.972;10.686;2023-02-20T10:54:05;7.75;;;3.05;;
45944;SDS011;31655;48.972;10.686;2023-02-20T10:56:44;8.63;;;2.42;;
45944;SDS011;31655;48.972;10.686;2023-02-20T11:02:24;5.07;;;2.25;;
45944;SDS011;31655;48.972;10.686;2023-02-20T11:04:54;3.83;;;2.22;;
45944;SDS011;31655;48.972;10.686;2023-02-20T11:07:27;8.13;;;2.40;;
45944;SDS011;31655;48.972;10.686;2023-02-20T11:09:53;4.93;;;2.30;;
45944;SDS011;31655;48.972;10.686;2023-02-20T11:15:13;4.80;;;2.45;;
45944;SDS011;31655;48.972;10.686;2023-02-20T11:17:44;7.88;;;2.47;;
45944;SDS011;31655;48.972;10.686;2023-02-20T11:22:56;2.88;;;1.98;;
45944;SDS011;31655;48.972;10.686;2023-02-20T11:25:26;7.15;;;2.97;;
45944;SDS011;31655;48.972;10.686;2023-02-20T11:28:10;5.97;;;2.47;;
45944;SDS011;31655;48.972;10.686;2023-02-20T11:31:00;4.82;;;2.22;;
45944;SDS011;31655;48.972;10.686;2023-02-20T11:33:32;4.63;;;2.10;;
45944;SDS011;31655;48.972;10.686;2023-02-20T11:39:00;5.55;;;2.40;;
45944;SDS011;31655;48.972;10.686;2023-02-20T11:41:36;6.43;;;2.47;;
45944;SDS011;31655;48.972;10.686;2023-02-20T11:44:23;8.80;;;2.25;;
45944;SDS011;31655;48.972;10.686;2023-02-20T11:49:46;4.63;;;2.17;;
45944;SDS011;31655;48.972;10.686;2023-02-20T11:52:19;5.50;;;2.20;;
45944;SDS011;31655;48.972;10.686;2023-02-20T11:54:47;6.07;;;2.45;;
45944;SDS011;31655;48.972;10.686;2023-02-20T11:57:32;3.47;;;2.10;;
45944;SDS011;31655;48.972;10.686;2023-02-20T12:05:14;8.98;;;2.22;;
45944;SDS011;31655;48.972;10.686;2023-02-20T12:07:42;7.53;;;2.35;;
45944;SDS011;31655;48.972;10.686;2023-02-20T12:13:03;7.28;;;2.58;;
45944;SDS011;31655;48.972;10.686;2023-02-20T12:15:30;5.88;;;2.10;;
45944;SDS011;31655;48.972;10.686;2023-02-20T12:20:31;9.30;;;2.60;;
45944;SDS011;31655;48.972;10.686;2023-02-20T12:28:29;4.40;;;2.03;;
45944;SDS011;31655;48.972;10.686;2023-02-20T12:31:15;11.48;;;3.35;;
45944;SDS011;31655;48.972;10.686;2023-02-20T12:34:12;6.72;;;2.03;;
45944;SDS011;31655;48.972;10.686;2023-02-20T12:36:46;3.10;;;2.03;;
45944;SDS011;31655;48.972;10.686;2023-02-20T12:41:57;6.40;;;1.42;;
45944;SDS011;31655;48.972;10.686;2023-02-20T12:47:28;4.50;;;2.17;;
45944;SDS011;31655;48.972;10.686;2023-02-20T13:01:08;5.75;;;2.00;;
45944;SDS011;31655;48.972;10.686;2023-02-20T13:06:15;6.97;;;2.28;;
45944;SDS011;31655;48.972;10.686;2023-02-20T13:11:19;7.13;;;2.13;;
45944;SDS011;31655;48.972;10.686;2023-02-20T13:14:05;3.92;;;2.30;;
45944;SDS011;31655;48.972;10.686;2023-02-20T13:16:42;5.45;;;2.00;;
45944;SDS011;31655;48.972;10.686;2023-02-20T13:19:16;13.30;;;2.78;;
45944;SDS011;31655;48.972;10.686;2023-02-20T13:21:47;4.05;;;2.03;;
45944;SDS011;31655;48.972;10.686;2023-02-20T13:26:46;5.57;;;2.85;;
45944;SDS011;31655;48.972;10.686;2023-02-20T13:29:21;5.87;;;1.70;;
45944;SDS011;31655;48.972;10.686;2023-02-20T13:31:54;5.65;;;1.73;;
45944;SDS011;31655;48.972;10.686;2023-02-20T13:34:26;11.75;;;2.60;;
45944;SDS011;31655;48.972;10.686;2023-02-20T13:36:52;3.97;;;1.90;;
45944;SDS011;31655;48.972;10.686;2023-02-20T13:41:55;4.63;;;1.83;;
45944;SDS011;31655;48.972;10.686;2023-02-20T13:49:58;5.03;;;1.63;;
45944;SDS011;31655;48.972;10.686;2023-02-20T13:52:41;4.53;;;1.83;;
45944;SDS011;31655;48.972;10.686;2023-02-20T13:57:41;2.80;;;1.45;;
45944;SDS011;31655;48.972;10.686;2023-02-20T14:02:49;3.60;;;1.38;;
45944;SDS011;31655;48.972;10.686;2023-02-20T14:05:20;3.20;;;1.45;;
45944;SDS011;31655;48.972;10.686;2023-02-20T14:07:54;2.45;;;1.70;;
45944;SDS011;31655;48.972;10.686;2023-02-20T14:10:28;4.40;;;1.40;;
45944;SDS011;31655;48.972;10.686;2023-02-20T14:13:13;4.00;;;1.80;;
45944;SDS011;31655;48.972;10.686;2023-02-20T14:15:45;5.82;;;1.60;;
45944;SDS011;31655;48.972;10.686;2023-02-20T14:18:32;4.22;;;1.20;;
45944;SDS011;31655;48.972;10.686;2023-02-20T14:21:15;5.53;;;1.52;;
45944;SDS011;31655;48.972;10.686;2023-02-20T14:23:43;4.15;;;1.50;;
45944;SDS011;31655;48.972;10.686;2023-02-20T14:26:18;2.22;;;1.83;;
45944;SDS011;31655;48.972;10.686;2023-02-20T14:28:57;10.18;;;1.92;;
45944;SDS011;31655;48.972;10.686;2023-02-20T14:31:31;2.15;;;0.98;;
45944;SDS011;31655;48.972;10.686;2023-02-20T14:33:59;5.70;;;1.27;;
45944;SDS011;31655;48.972;10.686;2023-02-20T14:42:00;5.95;;;1.42;;
45944;SDS011;31655;48.972;10.686;2023-02-20T14:44:28;5.63;;;1.30;;
45944;SDS011;31655;48.972;10.686;2023-02-20T14:47:14;3.53;;;1.05;;
45944;SDS011;31655;48.972;10.686;2023-02-20T14:54:38;2.00;;;1.05;;
45944;SDS011;31655;48.972;10.686;2023-02-20T14:57:06;7.43;;;1.52;;
45944;SDS011;31655;48.972;10.686;2023-02-20T14:59:36;3.75;;;1.20;;
45944;SDS011;31655;48.972;10.686;2023-02-20T15:02:17;3.45;;;1.20;;
45944;SDS011;31655;48.972;10.686;2023-02-20T15:04:46;6.35;;;1.80;;
45944;SDS011;31655;48.972;10.686;2023-02-20T15:07:18;5.40;;;1.08;;
45944;SDS011;31655;48.972;10.686;2023-02-20T15:09:47;2.28;;;1.52;;
45944;SDS011;31655;48.972;10.686;2023-02-20T15:12:19;3.92;;;1.38;;
45944;SDS011;31655;48.972;10.686;2023-02-20T15:17:23;2.38;;;1.08;;
45944;SDS011;31655;48.972;10.686;2023-02-20T15:19:50;4.22;;;1.10;;
45944;SDS011;31655;48.972;10.686;2023-02-20T15:22:23;3.70;;;1.50;;
45944;SDS011;31655;48.972;10.686;2023-02-20T15:25:10;1.20;;;0.93;;
45944;SDS011;31655;48.972;10.686;2023-02-20T15:33:23;3.63;;;1.27;;
45944;SDS011;31655;48.972;10.686;2023-02-20T15:35:49;9.60;;;3.58;;
45944;SDS011;31655;48.972;10.686;2023-02-20T15:38:15;4.00;;;1.77;;
45944;SDS011;31655;48.972;10.686;2023-02-20T15:40:40;3.03;;;1.33;;
45944;SDS011;31655;48.972;10.686;2023-02-20T15:43:12;3.78;;;1.20;;
45944;SDS011;31655;48.972;10.686;2023-02-20T15:45:39;3.88;;;1.15;;
45944;SDS011;31655;48.972;10.686;2023-02-20T15:48:05;3.65;;;1.52;;
45944;SDS011;31655;48.972;10.686;2023-02-20T15:50:34;3.22;;;1.20;;
45944;SDS011;31655;48.972;10.686;2023-02-20T15:53:00;1.30;;;1.00;;
45944;SDS011;31655;48.972;10.686;2023-02-20T15:55:28;3.15;;;1.20;;
45944;SDS011;31655;48.972;10.686;2023-02-20T15:57:57;1.88;;;1.10;;
45944;SDS011;31655;48.972;10.686;2023-02-20T16:00:30;1.85;;;0.90;;
45944;SDS011;31655;48.972;10.686;2023-02-20T16:02:58;3.55;;;1.38;;
45944;SDS011;31655;48.972;10.686;2023-02-20T16:05:25;2.50;;;1.05;;
45944;SDS011;31655;48.972;10.686;2023-02-20T16:07:52;2.58;;;1.20;;
45944;SDS011;31655;48.972;10.686;2023-02-20T16:10:18;4.25;;;1.42;;
45944;SDS011;31655;48.972;10.686;2023-02-20T16:12:49;3.78;;;1.27;;
45944;SDS011;31655;48.972;10.686;2023-02-20T16:15:20;6.30;;;1.23;;
45944;SDS011;31655;48.972;10.686;2023-02-20T16:17:47;3.45;;;1.33;;
45944;SDS011;31655;48.972;10.686;2023-02-20T16:20:18;4.82;;;1.90;;
45944;SDS011;31655;48.972;10.686;2023-02-20T16:22:45;2.67;;;1.13;;
45944;SDS011;31655;48.972;10.686;2023-02-20T16:25:13;2.83;;;1.63;;
45944;SDS011;31655;48.972;10.686;2023-02-20T16:27:40;2.70;;;1.42;;
45944;SDS011;31655;48.972;10.686;2023-02-20T16:30:06;6.22;;;1.58;;
45944;SDS011;31655;48.972;10.686;2023-02-20T16:32:46;2.10;;;1.20;;
45944;SDS011;31655;48.972;10.686;2023-02-20T16:35:13;3.25;;;1.35;;
45944;SDS011;31655;48.972;10.686;2023-02-20T16:37:39;5.03;;;1.50;;
45944;SDS011;31655;48.972;10.686;2023-02-20T16:40:05;4.90;;;1.75;;
45944;SDS011;31655;48.972;10.686;2023-02-20T16:42:32;3.30;;;1.42;;
45944;SDS011;31655;48.972;10.686;2023-02-20T16:45:05;8.55;;;1.38;;
45944;SDS011;31655;48.972;10.686;2023-02-20T16:47:31;4.53;;;1.85;;
45944;SDS011;31655;48.972;10.686;2023-02-20T16:49:57;4.53;;;1.67;;
45944;SDS011;31655;48.972;10.686;2023-02-20T16:52:33;3.33;;;1.48;;
45944;SDS011;31655;48.972;10.686;2023-02-20T16:55:00;4.85;;;1.75;;
45944;SDS011;31655;48.972;10.686;2023-02-20T16:57:27;3.25;;;1.50;;
45944;SDS011;31655;48.972;10.686;2023-02-20T16:59:54;5.00;;;1.20;;
45944;SDS011;31655;48.972;10.686;2023-02-20T17:02:39;1.33;;;1.00;;
45944;SDS011;31655;48.972;10.686;2023-02-20T17:05:05;7.60;;;1.58;;
45944;SDS011;31655;48.972;10.686;2023-02-20T17:07:30;5.80;;;1.75;;
45944;SDS011;31655;48.972;10.686;2023-02-20T17:09:56;3.30;;;2.25;;
45944;SDS011;31655;48.972;10.686;2023-02-20T17:12:23;10.32;;;2.30;;
45944;SDS011;31655;48.972;10.686;2023-02-20T17:14:49;6.20;;;2.75;;
45944;SDS011;31655;48.972;10.686;2023-02-20T17:17:17;4.57;;;2.60;;
45944;SDS011;31655;48.972;10.686;2023-02-20T17:19:44;6.40;;;2.10;;
45944;SDS011;31655;48.972;10.686;2023-02-20T17:22:10;5.80;;;2.20;;
45944;SDS011;31655;48.972;10.686;2023-02-20T17:24:38;5.45;;;2.08;;
45944;SDS011;31655;48.972;10.686;2023-02-20T17:27:06;3.95;;;2.13;;
45944;SDS011;31655;48.972;10.686;2023-02-20T17:29:32;5.57;;;2.38;;
45944;SDS011;31655;48.972;10.686;2023-02-20T17:31:58;5.20;;;2.35;;
45944;SDS011;31655;48.972;10.686;2023-02-20T17:34:23;8.32;;;2.53;;
45944;SDS011;31655;48.972;10.686;2023-02-20T17:36:49;6.07;;;1.85;;
45944;SDS011;31655;48.972;10.686;2023-02-20T17:39:16;7.43;;;3.60;;
45944;SDS011;31655;48.972;10.686;2023-02-20T17:41:43;9.18;;;3.42;;
45944;SDS011;31655;48.972;10.686;2023-02-20T17:44:09;7.28;;;3.97;;
45944;SDS011;31655;48.972;10.686;2023-02-20T17:46:35;3.40;;;2.05;;